sensor_id;sensor_type;location;lat;lon;timestamp;P1;durP1;ratioP1;P2;durP2;ratioP2
24557;SDS011;12726;49.148;8.582;2023-08-21T00:02:17;6.80;;;6.10;;
24557;SDS011;12726;49.148;8.582;2023-08-21T00:05:03;5.68;;;5.03;;
24557;SDS011;12726;49.148;8.582;2023-08-21T00:07:48;6.63;;;5.00;;
24557;SDS011;12726;49.148;8.582;2023-08-21T00:10:36;9.05;;;5.30;;
24557;SDS011;12726;49.148;8.582;2023-08-21T00:13:24;10.60;;;5.80;;
24557;SDS011;12726;49.148;8.582;2023-08-21T00:16:09;6.50;;;4.78;;
24557;SDS011;12726;49.148;8.582;2023-08-21T00:18:54;8.45;;;5.28;;
24557;SDS011;12726;49.148;8.582;2023-08-21T00:21:40;6.15;;;5.38;;
24557;SDS011;12726;49.148;8.582;2023-08-21T00:24:25;8.75;;;5.47;;
24557;SDS011;12726;49.148;8.582;2023-08-21T00:27:11;6.13;;;5.00;;
24557;SDS011;12726;49.148;8.582;2023-08-21T00:29:58;6.72;;;5.40;;
24557;SDS011;12726;49.148;8.582;2023-08-21T00:32:45;7.78;;;6.00;;
24557;SDS011;12726;49.148;8.582;2023-08-21T00:35:30;6.80;;;5.97;;
24557;SDS011;12726;49.148;8.582;2023-08-21T00:38:16;9.88;;;5.53;;
24557;SDS011;12726;49.148;8.582;2023-08-21T00:41:01;6.95;;;4.95;;
24557;SDS011;12726;49.148;8.582;2023-08-21T00:43:46;7.15;;;5.30;;
24557;SDS011;12726;49.148;8.582;2023-08-21T00:46:33;5.88;;;5.07;;
24557;SDS011;12726;49.148;8.582;2023-08-21T00:49:19;7.10;;;4.97;;
24557;SDS011;12726;49.148;8.582;2023-08-21T00:52:05;5.43;;;4.85;;
24557;SDS011;12726;49.148;8.582;2023-08-21T00:54:53;6.75;;;4.65;;
24557;SDS011;12726;49.148;8.582;2023-08-21T00:57:40;8.88;;;5.70;;
24557;SDS011;12726;49.148;8.582;2023-08-21T01:00:26;8.57;;;5.93;;
24557;SDS011;12726;49.148;8.582;2023-08-21T01:03:14;6.05;;;5.30;;
24557;SDS011;12726;49.148;8.582;2023-08-21T01:06:00;9.02;;;5.90;;
24557;SDS011;12726;49.148;8.582;2023-08-21T01:08:46;6.90;;;5.70;;
24557;SDS011;12726;49.148;8.582;2023-08-21T01:11:39;6.57;;;5.17;;
24557;SDS011;12726;49.148;8.582;2023-08-21T01:14:31;13.38;;;6.88;;
24557;SDS011;12726;49.148;8.582;2023-08-21T01:17:21;9.45;;;6.72;;
24557;SDS011;12726;49.148;8.582;2023-08-21T01:20:09;7.85;;;6.20;;
24557;SDS011;12726;49.148;8.582;2023-08-21T01:22:56;7.90;;;6.57;;
24557;SDS011;12726;49.148;8.582;2023-08-21T01:25:43;11.65;;;6.20;;
24557;SDS011;12726;49.148;8.582;2023-08-21T01:28:28;7.55;;;6.10;;
24557;SDS011;12726;49.148;8.582;2023-08-21T01:31:14;8.45;;;5.63;;
24557;SDS011;12726;49.148;8.582;2023-08-21T01:34:06;7.75;;;6.25;;
24557;SDS011;12726;49.148;8.582;2023-08-21T01:36:56;6.50;;;5.72;;
24557;SDS011;12726;49.148;8.582;2023-08-21T01:39:42;8.38;;;6.10;;
24557;SDS011;12726;49.148;8.582;2023-08-21T01:42:28;8.85;;;5.35;;
24557;SDS011;12726;49.148;8.582;2023-08-21T01:45:13;7.82;;;5.68;;
24557;SDS011;12726;49.148;8.582;2023-08-21T01:47:59;8.73;;;5.75;;
24557;SDS011;12726;49.148;8.582;2023-08-21T01:50:44;7.38;;;5.68;;
24557;SDS011;12726;49.148;8.582;2023-08-21T01:53:30;9.15;;;5.63;;
24557;SDS011;12726;49.148;8.582;2023-08-21T01:56:15;6.53;;;5.90;;
24557;SDS011;12726;49.148;8.582;2023-08-21T01:59:02;11.25;;;6.57;;
24557;SDS011;12726;49.148;8.582;2023-08-21T02:01:50;10.57;;;5.18;;
24557;SDS011;12726;49.148;8.582;2023-08-21T02:04:35;6.55;;;5.07;;
24557;SDS011;12726;49.148;8.582;2023-08-21T02:07:20;9.05;;;5.40;;
24557;SDS011;12726;49.148;8.582;2023-08-21T02:10:06;6.20;;;4.95;;
24557;SDS011;12726;49.148;8.582;2023-08-21T02:12:52;7.72;;;5.45;;
24557;SDS011;12726;49.148;8.582;2023-08-21T02:15:39;5.80;;;4.90;;
24557;SDS011;12726;49.148;8.582;2023-08-21T02:18:24;6.57;;;5.00;;
24557;SDS011;12726;49.148;8.582;2023-08-21T02:21:09;8.35;;;5.35;;
24557;SDS011;12726;49.148;8.582;2023-08-21T02:23:55;7.20;;;5.13;;
24557;SDS011;12726;49.148;8.582;2023-08-21T02:26:40;6.32;;;5.63;;
24557;SDS011;12726;49.148;8.582;2023-08-21T02:29:26;8.32;;;4.93;;
24557;SDS011;12726;49.148;8.582;2023-08-21T02:32:13;9.30;;;4.97;;
24557;SDS011;12726;49.148;8.582;2023-08-21T02:34:59;7.25;;;5.07;;
24557;SDS011;12726;49.148;8.582;2023-08-21T02:37:44;6.65;;;4.90;;
24557;SDS011;12726;49.148;8.582;2023-08-21T02:40:29;8.57;;;5.25;;
24557;SDS011;12726;49.148;8.582;2023-08-21T02:43:15;5.80;;;5.20;;
24557;SDS011;12726;49.148;8.582;2023-08-21T02:46:01;6.18;;;5.00;;
24557;SDS011;12726;49.148;8.582;2023-08-21T02:48:47;7.35;;;5.43;;
24557;SDS011;12726;49.148;8.582;2023-08-21T02:51:33;6.38;;;5.25;;
24557;SDS011;12726;49.148;8.582;2023-08-21T02:54:18;7.05;;;5.20;;
24557;SDS011;12726;49.148;8.582;2023-08-21T02:57:03;8.20;;;5.40;;
24557;SDS011;12726;49.148;8.582;2023-08-21T02:59:49;6.32;;;5.32;;
24557;SDS011;12726;49.148;8.582;2023-08-21T03:02:34;8.95;;;5.60;;
24557;SDS011;12726;49.148;8.582;2023-08-21T03:05:21;5.93;;;5.32;;
24557;SDS011;12726;49.148;8.582;2023-08-21T03:08:06;7.57;;;5.45;;
24557;SDS011;12726;49.148;8.582;2023-08-21T03:10:52;7.15;;;5.18;;
24557;SDS011;12726;49.148;8.582;2023-08-21T03:13:37;6.68;;;5.30;;
24557;SDS011;12726;49.148;8.582;2023-08-21T03:16:23;6.28;;;5.18;;
24557;SDS011;12726;49.148;8.582;2023-08-21T03:19:08;8.43;;;5.30;;
24557;SDS011;12726;49.148;8.582;2023-08-21T03:21:54;6.80;;;5.43;;
24557;SDS011;12726;49.148;8.582;2023-08-21T03:24:40;6.10;;;4.95;;
24557;SDS011;12726;49.148;8.582;2023-08-21T03:27:25;6.25;;;5.28;;
24557;SDS011;12726;49.148;8.582;2023-08-21T03:30:11;8.97;;;5.30;;
24557;SDS011;12726;49.148;8.582;2023-08-21T03:32:58;6.63;;;5.47;;
24557;SDS011;12726;49.148;8.582;2023-08-21T03:35:44;6.78;;;5.28;;
24557;SDS011;12726;49.148;8.582;2023-08-21T03:38:30;6.72;;;5.35;;
24557;SDS011;12726;49.148;8.582;2023-08-21T03:41:16;8.05;;;5.45;;
24557;SDS011;12726;49.148;8.582;2023-08-21T03:44:01;6.20;;;5.20;;
24557;SDS011;12726;49.148;8.582;2023-08-21T03:46:46;6.40;;;5.63;;
24557;SDS011;12726;49.148;8.582;2023-08-21T03:49:32;9.05;;;5.55;;
24557;SDS011;12726;49.148;8.582;2023-08-21T03:52:17;6.53;;;5.30;;
24557;SDS011;12726;49.148;8.582;2023-08-21T03:55:04;7.75;;;5.57;;
24557;SDS011;12726;49.148;8.582;2023-08-21T03:57:50;9.23;;;5.82;;
24557;SDS011;12726;49.148;8.582;2023-08-21T04:00:35;10.07;;;6.10;;
24557;SDS011;12726;49.148;8.582;2023-08-21T04:03:20;7.18;;;5.85;;
24557;SDS011;12726;49.148;8.582;2023-08-21T04:06:06;9.05;;;6.22;;
24557;SDS011;12726;49.148;8.582;2023-08-21T04:08:51;8.13;;;6.00;;
24557;SDS011;12726;49.148;8.582;2023-08-21T04:11:38;8.18;;;6.35;;
24557;SDS011;12726;49.148;8.582;2023-08-21T04:14:23;9.15;;;6.18;;
24557;SDS011;12726;49.148;8.582;2023-08-21T04:17:08;7.55;;;5.55;;
24557;SDS011;12726;49.148;8.582;2023-08-21T04:19:54;8.95;;;5.70;;
24557;SDS011;12726;49.148;8.582;2023-08-21T04:22:40;8.95;;;5.53;;
24557;SDS011;12726;49.148;8.582;2023-08-21T04:25:25;7.50;;;5.55;;
24557;SDS011;12726;49.148;8.582;2023-08-21T04:28:12;8.43;;;5.78;;
24557;SDS011;12726;49.148;8.582;2023-08-21T04:30:57;8.35;;;5.63;;
24557;SDS011;12726;49.148;8.582;2023-08-21T04:33:43;8.73;;;6.10;;
24557;SDS011;12726;49.148;8.582;2023-08-21T04:36:28;8.18;;;5.78;;
24557;SDS011;12726;49.148;8.582;2023-08-21T04:39:13;8.52;;;5.65;;
24557;SDS011;12726;49.148;8.582;2023-08-21T04:41:59;6.78;;;5.30;;
24557;SDS011;12726;49.148;8.582;2023-08-21T04:44:46;7.32;;;5.40;;
24557;SDS011;12726;49.148;8.582;2023-08-21T04:47:31;7.25;;;5.85;;
24557;SDS011;12726;49.148;8.582;2023-08-21T04:50:17;5.97;;;5.00;;
24557;SDS011;12726;49.148;8.582;2023-08-21T04:53:02;8.73;;;6.15;;
24557;SDS011;12726;49.148;8.582;2023-08-21T04:55:48;7.88;;;6.03;;
24557;SDS011;12726;49.148;8.582;2023-08-21T04:58:33;7.28;;;5.90;;
24557;SDS011;12726;49.148;8.582;2023-08-21T05:01:20;9.07;;;6.63;;
24557;SDS011;12726;49.148;8.582;2023-08-21T05:04:05;8.68;;;5.95;;
24557;SDS011;12726;49.148;8.582;2023-08-21T05:06:50;7.18;;;5.63;;
24557;SDS011;12726;49.148;8.582;2023-08-21T05:09:36;12.68;;;6.20;;
24557;SDS011;12726;49.148;8.582;2023-08-21T05:12:21;9.27;;;6.47;;
24557;SDS011;12726;49.148;8.582;2023-08-21T05:15:06;8.43;;;6.30;;
24557;SDS011;12726;49.148;8.582;2023-08-21T05:17:53;9.25;;;6.25;;
24557;SDS011;12726;49.148;8.582;2023-08-21T05:20:39;6.95;;;5.45;;
24557;SDS011;12726;49.148;8.582;2023-08-21T05:23:24;9.65;;;6.10;;
24557;SDS011;12726;49.148;8.582;2023-08-21T05:26:09;8.65;;;5.95;;
24557;SDS011;12726;49.148;8.582;2023-08-21T05:28:55;7.25;;;5.63;;
24557;SDS011;12726;49.148;8.582;2023-08-21T05:31:40;7.55;;;5.47;;
24557;SDS011;12726;49.148;8.582;2023-08-21T05:34:27;10.23;;;6.45;;
24557;SDS011;12726;49.148;8.582;2023-08-21T05:37:13;7.88;;;6.25;;
24557;SDS011;12726;49.148;8.582;2023-08-21T05:39:58;7.57;;;5.70;;
24557;SDS011;12726;49.148;8.582;2023-08-21T05:42:43;8.07;;;5.88;;
24557;SDS011;12726;49.148;8.582;2023-08-21T05:45:29;11.10;;;6.30;;
24557;SDS011;12726;49.148;8.582;2023-08-21T05:48:15;7.18;;;5.70;;
24557;SDS011;12726;49.148;8.582;2023-08-21T05:51:02;8.07;;;6.43;;
24557;SDS011;12726;49.148;8.582;2023-08-21T05:53:49;9.02;;;6.65;;
24557;SDS011;12726;49.148;8.582;2023-08-21T05:56:34;11.80;;;6.28;;
24557;SDS011;12726;49.148;8.582;2023-08-21T05:59:26;9.80;;;6.68;;
24557;SDS011;12726;49.148;8.582;2023-08-21T06:02:13;10.23;;;6.78;;
24557;SDS011;12726;49.148;8.582;2023-08-21T06:04:59;15.13;;;6.70;;
24557;SDS011;12726;49.148;8.582;2023-08-21T06:07:45;9.57;;;6.05;;
24557;SDS011;12726;49.148;8.582;2023-08-21T06:10:31;9.50;;;6.60;;
24557;SDS011;12726;49.148;8.582;2023-08-21T06:13:16;9.30;;;6.38;;
24557;SDS011;12726;49.148;8.582;2023-08-21T06:16:02;13.52;;;7.22;;
24557;SDS011;12726;49.148;8.582;2023-08-21T06:18:47;9.73;;;6.32;;
24557;SDS011;12726;49.148;8.582;2023-08-21T06:21:32;8.85;;;6.32;;
24557;SDS011;12726;49.148;8.582;2023-08-21T06:24:19;12.15;;;6.60;;
24557;SDS011;12726;49.148;8.582;2023-08-21T06:27:04;9.85;;;6.57;;
24557;SDS011;12726;49.148;8.582;2023-08-21T06:29:49;13.02;;;6.50;;
24557;SDS011;12726;49.148;8.582;2023-08-21T06:32:35;12.20;;;7.07;;
24557;SDS011;12726;49.148;8.582;2023-08-21T06:35:20;8.60;;;6.68;;
24557;SDS011;12726;49.148;8.582;2023-08-21T06:38:06;7.68;;;6.15;;
24557;SDS011;12726;49.148;8.582;2023-08-21T06:40:53;11.07;;;7.07;;
24557;SDS011;12726;49.148;8.582;2023-08-21T06:43:38;11.60;;;6.63;;
24557;SDS011;12726;49.148;8.582;2023-08-21T06:46:23;10.57;;;7.47;;
24557;SDS011;12726;49.148;8.582;2023-08-21T06:49:09;10.73;;;6.75;;
24557;SDS011;12726;49.148;8.582;2023-08-21T06:51:54;7.65;;;6.85;;
24557;SDS011;12726;49.148;8.582;2023-08-21T06:54:39;8.68;;;6.25;;
24557;SDS011;12726;49.148;8.582;2023-08-21T06:57:26;11.15;;;7.85;;
24557;SDS011;12726;49.148;8.582;2023-08-21T07:00:12;8.47;;;6.10;;
24557;SDS011;12726;49.148;8.582;2023-08-21T07:02:58;9.07;;;7.38;;
24557;SDS011;12726;49.148;8.582;2023-08-21T07:05:46;10.15;;;7.65;;
24557;SDS011;12726;49.148;8.582;2023-08-21T07:08:31;9.18;;;7.78;;
24557;SDS011;12726;49.148;8.582;2023-08-21T07:11:17;11.63;;;7.43;;
24557;SDS011;12726;49.148;8.582;2023-08-21T07:14:03;10.52;;;7.00;;
24557;SDS011;12726;49.148;8.582;2023-08-21T07:16:49;10.77;;;7.30;;
24557;SDS011;12726;49.148;8.582;2023-08-21T07:19:34;11.30;;;7.32;;
24557;SDS011;12726;49.148;8.582;2023-08-21T07:22:20;9.60;;;6.82;;
24557;SDS011;12726;49.148;8.582;2023-08-21T07:25:05;8.23;;;6.80;;
24557;SDS011;12726;49.148;8.582;2023-08-21T07:27:51;11.93;;;6.40;;
24557;SDS011;12726;49.148;8.582;2023-08-21T07:30:39;7.82;;;6.50;;
24557;SDS011;12726;49.148;8.582;2023-08-21T07:33:24;8.90;;;6.50;;
24557;SDS011;12726;49.148;8.582;2023-08-21T07:36:10;9.67;;;6.50;;
24557;SDS011;12726;49.148;8.582;2023-08-21T07:39:00;12.60;;;6.40;;
24557;SDS011;12726;49.148;8.582;2023-08-21T07:41:46;10.63;;;6.55;;
24557;SDS011;12726;49.148;8.582;2023-08-21T07:44:31;9.55;;;5.63;;
24557;SDS011;12726;49.148;8.582;2023-08-21T07:47:18;10.43;;;6.60;;
24557;SDS011;12726;49.148;8.582;2023-08-21T07:50:04;10.82;;;6.57;;
24557;SDS011;12726;49.148;8.582;2023-08-21T07:52:50;12.35;;;7.10;;
24557;SDS011;12726;49.148;8.582;2023-08-21T07:55:35;7.60;;;6.57;;
24557;SDS011;12726;49.148;8.582;2023-08-21T07:58:24;11.48;;;6.72;;
24557;SDS011;12726;49.148;8.582;2023-08-21T08:01:09;8.55;;;6.85;;
24557;SDS011;12726;49.148;8.582;2023-08-21T08:03:56;6.90;;;6.18;;
24557;SDS011;12726;49.148;8.582;2023-08-21T08:06:41;8.27;;;6.25;;
24557;SDS011;12726;49.148;8.582;2023-08-21T08:09:27;9.23;;;6.10;;
24557;SDS011;12726;49.148;8.582;2023-08-21T08:12:12;8.63;;;6.35;;
24557;SDS011;12726;49.148;8.582;2023-08-21T08:14:57;8.55;;;6.20;;
24557;SDS011;12726;49.148;8.582;2023-08-21T08:17:43;11.48;;;6.78;;
24557;SDS011;12726;49.148;8.582;2023-08-21T08:20:30;8.55;;;6.55;;
24557;SDS011;12726;49.148;8.582;2023-08-21T08:23:16;9.68;;;6.70;;
24557;SDS011;12726;49.148;8.582;2023-08-21T08:26:01;7.88;;;6.13;;
24557;SDS011;12726;49.148;8.582;2023-08-21T08:28:47;8.90;;;6.07;;
24557;SDS011;12726;49.148;8.582;2023-08-21T08:31:32;7.30;;;5.82;;
24557;SDS011;12726;49.148;8.582;2023-08-21T08:34:17;8.20;;;5.70;;
24557;SDS011;12726;49.148;8.582;2023-08-21T08:37:05;8.70;;;6.60;;
24557;SDS011;12726;49.148;8.582;2023-08-21T08:39:50;8.75;;;6.07;;
24557;SDS011;12726;49.148;8.582;2023-08-21T08:42:36;9.13;;;6.35;;
24557;SDS011;12726;49.148;8.582;2023-08-21T08:45:23;7.47;;;6.38;;
24557;SDS011;12726;49.148;8.582;2023-08-21T08:48:14;8.32;;;6.43;;
24557;SDS011;12726;49.148;8.582;2023-08-21T08:51:01;8.20;;;6.60;;
24557;SDS011;12726;49.148;8.582;2023-08-21T08:53:49;7.72;;;6.25;;
24557;SDS011;12726;49.148;8.582;2023-08-21T08:56:35;9.85;;;6.50;;
24557;SDS011;12726;49.148;8.582;2023-08-21T08:59:20;11.32;;;6.95;;
24557;SDS011;12726;49.148;8.582;2023-08-21T09:02:05;9.68;;;6.68;;
24557;SDS011;12726;49.148;8.582;2023-08-21T09:04:51;10.55;;;6.72;;
24557;SDS011;12726;49.148;8.582;2023-08-21T09:07:36;10.32;;;6.35;;
24557;SDS011;12726;49.148;8.582;2023-08-21T09:10:23;8.18;;;6.65;;
24557;SDS011;12726;49.148;8.582;2023-08-21T09:13:14;10.55;;;6.20;;
24557;SDS011;12726;49.148;8.582;2023-08-21T09:16:00;8.48;;;6.72;;
24557;SDS011;12726;49.148;8.582;2023-08-21T09:18:46;11.02;;;6.57;;
24557;SDS011;12726;49.148;8.582;2023-08-21T09:21:32;9.23;;;6.38;;
24557;SDS011;12726;49.148;8.582;2023-08-21T09:24:18;8.38;;;6.43;;
24557;SDS011;12726;49.148;8.582;2023-08-21T09:27:10;8.43;;;6.40;;
24557;SDS011;12726;49.148;8.582;2023-08-21T09:29:58;9.52;;;6.65;;
24557;SDS011;12726;49.148;8.582;2023-08-21T09:32:53;8.65;;;6.57;;
24557;SDS011;12726;49.148;8.582;2023-08-21T09:35:39;7.20;;;6.05;;
24557;SDS011;12726;49.148;8.582;2023-08-21T09:38:27;8.45;;;6.72;;
24557;SDS011;12726;49.148;8.582;2023-08-21T09:41:13;10.02;;;6.70;;
24557;SDS011;12726;49.148;8.582;2023-08-21T09:44:00;8.70;;;6.93;;
24557;SDS011;12726;49.148;8.582;2023-08-21T09:46:48;10.15;;;6.50;;
24557;SDS011;12726;49.148;8.582;2023-08-21T09:49:33;9.73;;;6.15;;
24557;SDS011;12726;49.148;8.582;2023-08-21T09:52:20;11.68;;;6.40;;
24557;SDS011;12726;49.148;8.582;2023-08-21T09:55:06;8.77;;;6.15;;
24557;SDS011;12726;49.148;8.582;2023-08-21T09:57:52;10.57;;;7.15;;
24557;SDS011;12726;49.148;8.582;2023-08-21T10:00:43;9.10;;;6.22;;
24557;SDS011;12726;49.148;8.582;2023-08-21T10:03:29;9.45;;;6.72;;
24557;SDS011;12726;49.148;8.582;2023-08-21T10:06:17;10.02;;;6.07;;
24557;SDS011;12726;49.148;8.582;2023-08-21T10:09:03;10.27;;;6.05;;
24557;SDS011;12726;49.148;8.582;2023-08-21T10:11:49;8.75;;;5.88;;
24557;SDS011;12726;49.148;8.582;2023-08-21T10:14:35;7.13;;;5.93;;
24557;SDS011;12726;49.148;8.582;2023-08-21T10:17:22;9.93;;;6.45;;
24557;SDS011;12726;49.148;8.582;2023-08-21T10:20:08;8.65;;;5.93;;
24557;SDS011;12726;49.148;8.582;2023-08-21T10:22:55;8.15;;;6.32;;
24557;SDS011;12726;49.148;8.582;2023-08-21T10:25:45;6.27;;;5.50;;
24557;SDS011;12726;49.148;8.582;2023-08-21T10:28:41;9.02;;;5.43;;
24557;SDS011;12726;49.148;8.582;2023-08-21T10:31:28;9.10;;;6.60;;
24557;SDS011;12726;49.148;8.582;2023-08-21T10:34:16;6.53;;;5.78;;
24557;SDS011;12726;49.148;8.582;2023-08-21T10:37:04;7.82;;;6.40;;
24557;SDS011;12726;49.148;8.582;2023-08-21T10:39:56;6.75;;;5.88;;
24557;SDS011;12726;49.148;8.582;2023-08-21T10:42:41;10.07;;;5.78;;
24557;SDS011;12726;49.148;8.582;2023-08-21T10:45:27;7.60;;;5.28;;
24557;SDS011;12726;49.148;8.582;2023-08-21T10:48:12;4.90;;;4.40;;
24557;SDS011;12726;49.148;8.582;2023-08-21T10:50:59;4.88;;;4.15;;
24557;SDS011;12726;49.148;8.582;2023-08-21T10:53:46;7.40;;;4.20;;
24557;SDS011;12726;49.148;8.582;2023-08-21T10:56:32;6.88;;;4.82;;
24557;SDS011;12726;49.148;8.582;2023-08-21T10:59:17;9.00;;;4.57;;
24557;SDS011;12726;49.148;8.582;2023-08-21T11:02:03;8.88;;;4.30;;
24557;SDS011;12726;49.148;8.582;2023-08-21T11:04:48;5.60;;;4.57;;
24557;SDS011;12726;49.148;8.582;2023-08-21T11:07:39;4.88;;;4.30;;
24557;SDS011;12726;49.148;8.582;2023-08-21T11:10:27;6.78;;;4.15;;
24557;SDS011;12726;49.148;8.582;2023-08-21T11:13:14;7.70;;;4.40;;
24557;SDS011;12726;49.148;8.582;2023-08-21T11:16:00;4.60;;;3.60;;
24557;SDS011;12726;49.148;8.582;2023-08-21T11:18:46;6.50;;;4.50;;
24557;SDS011;12726;49.148;8.582;2023-08-21T11:21:31;7.47;;;4.57;;
24557;SDS011;12726;49.148;8.582;2023-08-21T11:24:18;8.95;;;4.22;;
24557;SDS011;12726;49.148;8.582;2023-08-21T11:27:03;7.03;;;4.22;;
24557;SDS011;12726;49.148;8.582;2023-08-21T11:29:49;3.75;;;3.20;;
24557;SDS011;12726;49.148;8.582;2023-08-21T11:32:36;8.35;;;4.50;;
24557;SDS011;12726;49.148;8.582;2023-08-21T11:35:21;6.25;;;4.18;;
24557;SDS011;12726;49.148;8.582;2023-08-21T11:38:13;8.48;;;5.03;;
24557;SDS011;12726;49.148;8.582;2023-08-21T11:41:01;7.97;;;4.45;;
24557;SDS011;12726;49.148;8.582;2023-08-21T11:43:47;7.63;;;4.70;;
24557;SDS011;12726;49.148;8.582;2023-08-21T11:46:32;5.93;;;4.25;;
24557;SDS011;12726;49.148;8.582;2023-08-21T11:49:19;5.93;;;4.22;;
24557;SDS011;12726;49.148;8.582;2023-08-21T11:52:06;8.27;;;4.70;;
24557;SDS011;12726;49.148;8.582;2023-08-21T11:54:52;8.13;;;4.72;;
24557;SDS011;12726;49.148;8.582;2023-08-21T11:57:50;6.43;;;4.75;;
24557;SDS011;12726;49.148;8.582;2023-08-21T12:00:37;7.93;;;4.47;;
24557;SDS011;12726;49.148;8.582;2023-08-21T12:03:24;9.30;;;4.80;;
24557;SDS011;12726;49.148;8.582;2023-08-21T12:06:11;6.18;;;5.03;;
24557;SDS011;12726;49.148;8.582;2023-08-21T12:08:57;6.18;;;4.55;;
24557;SDS011;12726;49.148;8.582;2023-08-21T12:11:43;5.05;;;3.95;;
24557;SDS011;12726;49.148;8.582;2023-08-21T12:14:30;7.25;;;4.60;;
24557;SDS011;12726;49.148;8.582;2023-08-21T12:17:15;7.32;;;4.75;;
24557;SDS011;12726;49.148;8.582;2023-08-21T12:20:01;8.23;;;3.90;;
24557;SDS011;12726;49.148;8.582;2023-08-21T12:22:54;6.00;;;4.03;;
24557;SDS011;12726;49.148;8.582;2023-08-21T12:25:40;8.18;;;4.30;;
24557;SDS011;12726;49.148;8.582;2023-08-21T12:28:25;5.57;;;4.10;;
24557;SDS011;12726;49.148;8.582;2023-08-21T12:31:12;8.13;;;4.07;;
24557;SDS011;12726;49.148;8.582;2023-08-21T12:33:57;7.70;;;4.20;;
24557;SDS011;12726;49.148;8.582;2023-08-21T12:36:43;6.40;;;4.05;;
24557;SDS011;12726;49.148;8.582;2023-08-21T12:39:28;5.13;;;3.75;;
24557;SDS011;12726;49.148;8.582;2023-08-21T12:42:14;10.55;;;4.57;;
24557;SDS011;12726;49.148;8.582;2023-08-21T12:44:59;10.43;;;4.30;;
24557;SDS011;12726;49.148;8.582;2023-08-21T12:47:46;4.95;;;4.03;;
24557;SDS011;12726;49.148;8.582;2023-08-21T12:50:31;6.68;;;3.92;;
24557;SDS011;12726;49.148;8.582;2023-08-21T12:53:16;7.90;;;3.63;;
24557;SDS011;12726;49.148;8.582;2023-08-21T12:56:02;6.05;;;3.40;;
24557;SDS011;12726;49.148;8.582;2023-08-21T12:58:47;9.07;;;3.55;;
24557;SDS011;12726;49.148;8.582;2023-08-21T13:01:35;6.10;;;3.88;;
24557;SDS011;12726;49.148;8.582;2023-08-21T13:04:22;9.07;;;3.97;;
24557;SDS011;12726;49.148;8.582;2023-08-21T13:07:08;9.35;;;4.20;;
24557;SDS011;12726;49.148;8.582;2023-08-21T13:09:53;5.20;;;3.50;;
24557;SDS011;12726;49.148;8.582;2023-08-21T13:12:38;6.20;;;4.13;;
24557;SDS011;12726;49.148;8.582;2023-08-21T13:15:24;6.80;;;3.83;;
24557;SDS011;12726;49.148;8.582;2023-08-21T13:18:09;7.32;;;4.28;;
24557;SDS011;12726;49.148;8.582;2023-08-21T13:20:56;6.55;;;4.00;;
24557;SDS011;12726;49.148;8.582;2023-08-21T13:23:41;7.63;;;4.35;;
24557;SDS011;12726;49.148;8.582;2023-08-21T13:26:26;6.20;;;4.53;;
24557;SDS011;12726;49.148;8.582;2023-08-21T13:29:13;4.05;;;3.65;;
24557;SDS011;12726;49.148;8.582;2023-08-21T13:31:58;6.75;;;4.00;;
24557;SDS011;12726;49.148;8.582;2023-08-21T13:34:44;4.40;;;4.00;;
24557;SDS011;12726;49.148;8.582;2023-08-21T13:37:31;6.53;;;3.95;;
24557;SDS011;12726;49.148;8.582;2023-08-21T13:40:16;4.97;;;3.88;;
24557;SDS011;12726;49.148;8.582;2023-08-21T13:43:02;8.88;;;4.35;;
24557;SDS011;12726;49.148;8.582;2023-08-21T13:45:48;5.75;;;3.95;;
24557;SDS011;12726;49.148;8.582;2023-08-21T13:48:33;6.75;;;3.65;;
24557;SDS011;12726;49.148;8.582;2023-08-21T13:51:21;6.55;;;3.63;;
24557;SDS011;12726;49.148;8.582;2023-08-21T13:54:07;6.35;;;4.00;;
24557;SDS011;12726;49.148;8.582;2023-08-21T13:56:52;5.22;;;4.07;;
24557;SDS011;12726;49.148;8.582;2023-08-21T13:59:38;8.23;;;3.90;;
24557;SDS011;12726;49.148;8.582;2023-08-21T14:02:23;9.77;;;3.60;;
24557;SDS011;12726;49.148;8.582;2023-08-21T14:05:09;5.65;;;3.70;;
24557;SDS011;12726;49.148;8.582;2023-08-21T14:07:55;4.85;;;3.60;;
24557;SDS011;12726;49.148;8.582;2023-08-21T14:10:42;5.50;;;3.40;;
24557;SDS011;12726;49.148;8.582;2023-08-21T14:13:28;7.80;;;3.70;;
24557;SDS011;12726;49.148;8.582;2023-08-21T14:16:13;7.97;;;4.30;;
24557;SDS011;12726;49.148;8.582;2023-08-21T14:18:58;6.97;;;4.30;;
24557;SDS011;12726;49.148;8.582;2023-08-21T14:21:44;7.90;;;3.83;;
24557;SDS011;12726;49.148;8.582;2023-08-21T14:24:29;6.82;;;3.70;;
24557;SDS011;12726;49.148;8.582;2023-08-21T14:27:16;3.78;;;3.10;;
24557;SDS011;12726;49.148;8.582;2023-08-21T14:30:01;5.10;;;3.50;;
24557;SDS011;12726;49.148;8.582;2023-08-21T14:32:47;7.28;;;3.00;;
24557;SDS011;12726;49.148;8.582;2023-08-21T14:35:32;3.10;;;2.80;;
24557;SDS011;12726;49.148;8.582;2023-08-21T14:38:18;4.38;;;2.60;;
24557;SDS011;12726;49.148;8.582;2023-08-21T14:41:03;3.88;;;2.67;;
24557;SDS011;12726;49.148;8.582;2023-08-21T14:43:50;4.38;;;2.88;;
24557;SDS011;12726;49.148;8.582;2023-08-21T14:46:35;4.40;;;2.80;;
24557;SDS011;12726;49.148;8.582;2023-08-21T14:49:21;3.78;;;2.78;;
24557;SDS011;12726;49.148;8.582;2023-08-21T14:52:08;5.47;;;3.28;;
24557;SDS011;12726;49.148;8.582;2023-08-21T14:54:56;4.82;;;3.00;;
24557;SDS011;12726;49.148;8.582;2023-08-21T14:57:44;3.53;;;2.70;;
24557;SDS011;12726;49.148;8.582;2023-08-21T15:00:30;4.75;;;3.30;;
24557;SDS011;12726;49.148;8.582;2023-08-21T15:03:18;3.83;;;2.67;;
24557;SDS011;12726;49.148;8.582;2023-08-21T15:06:03;6.75;;;4.25;;
24557;SDS011;12726;49.148;8.582;2023-08-21T15:08:49;8.52;;;3.15;;
24557;SDS011;12726;49.148;8.582;2023-08-21T15:11:34;6.28;;;3.65;;
24557;SDS011;12726;49.148;8.582;2023-08-21T15:14:20;4.38;;;3.35;;
24557;SDS011;12726;49.148;8.582;2023-08-21T15:17:06;9.05;;;4.10;;
24557;SDS011;12726;49.148;8.582;2023-08-21T15:19:52;8.20;;;3.63;;
24557;SDS011;12726;49.148;8.582;2023-08-21T15:22:39;5.38;;;3.78;;
24557;SDS011;12726;49.148;8.582;2023-08-21T15:25:24;4.47;;;3.67;;
24557;SDS011;12726;49.148;8.582;2023-08-21T15:28:09;3.63;;;3.33;;
24557;SDS011;12726;49.148;8.582;2023-08-21T15:30:55;3.67;;;3.15;;
24557;SDS011;12726;49.148;8.582;2023-08-21T15:33:41;5.43;;;3.25;;
24557;SDS011;12726;49.148;8.582;2023-08-21T15:36:27;6.38;;;3.80;;
24557;SDS011;12726;49.148;8.582;2023-08-21T15:39:12;8.23;;;3.88;;
24557;SDS011;12726;49.148;8.582;2023-08-21T15:41:58;5.82;;;3.88;;
24557;SDS011;12726;49.148;8.582;2023-08-21T15:44:43;7.20;;;3.63;;
24557;SDS011;12726;49.148;8.582;2023-08-21T15:47:29;4.88;;;3.55;;
24557;SDS011;12726;49.148;8.582;2023-08-21T15:50:15;3.97;;;3.58;;
24557;SDS011;12726;49.148;8.582;2023-08-21T15:53:03;6.93;;;3.50;;
24557;SDS011;12726;49.148;8.582;2023-08-21T15:55:48;8.85;;;4.10;;
24557;SDS011;12726;49.148;8.582;2023-08-21T15:58:34;4.85;;;3.80;;
24557;SDS011;12726;49.148;8.582;2023-08-21T16:01:19;4.20;;;3.53;;
24557;SDS011;12726;49.148;8.582;2023-08-21T16:04:04;5.18;;;3.42;;
24557;SDS011;12726;49.148;8.582;2023-08-21T16:06:51;4.38;;;3.50;;
24557;SDS011;12726;49.148;8.582;2023-08-21T16:09:38;5.88;;;3.40;;
24557;SDS011;12726;49.148;8.582;2023-08-21T16:12:23;8.25;;;3.90;;
24557;SDS011;12726;49.148;8.582;2023-08-21T16:15:09;4.82;;;3.50;;
24557;SDS011;12726;49.148;8.582;2023-08-21T16:17:54;3.78;;;3.40;;
24557;SDS011;12726;49.148;8.582;2023-08-21T16:20:40;5.72;;;3.33;;
24557;SDS011;12726;49.148;8.582;2023-08-21T16:23:27;8.38;;;3.80;;
24557;SDS011;12726;49.148;8.582;2023-08-21T16:26:12;5.25;;;3.67;;
24557;SDS011;12726;49.148;8.582;2023-08-21T16:28:57;5.28;;;3.47;;
24557;SDS011;12726;49.148;8.582;2023-08-21T16:31:43;4.35;;;3.60;;
24557;SDS011;12726;49.148;8.582;2023-08-21T16:34:28;4.95;;;3.70;;
24557;SDS011;12726;49.148;8.582;2023-08-21T16:37:14;4.72;;;3.28;;
24557;SDS011;12726;49.148;8.582;2023-08-21T16:40:01;5.50;;;3.60;;